Iwakuni Marine Corps Air Station
RJOI : now visible

Airfield :











YOU CAN JOIN US ON...

 
LOGIN :

Register | Disclaimer

   EN    FR    IT 

 









Legend :    VFR   Marginal VFR   IFR   Intensive IFR   Very Intensive IFR
Visi :
Ceiling :
>= 8 km
>= 3000ft
5 to 8 km
1000 to 3000 ft
1500m to 5 km
500 to 1000 ft
800 to 1500m
200 to 500 ft
< 800m
< 200 ft
Symbols :   Thunderstorms  Fog  Heavy snow  Heavy precipitations  Wind > 20 kt






- Airport Elevation : 7 ft


RJOI - Iwakuni Marine Corps Air Station

CURRENT METAR :
  • 060955Z 19016G21KT 8000 -SHRA BR FEW010 BKN020 OVC050 24/22 A2970 RMK SLP055 P0000 T02440217

EXPIRED METARs :
  • 060855Z 20008KT 6000 -SHRA BR FEW007 BKN015 OVC025 24/22 A2966 RMK SLP043 P0001 60130 T02440222 51010
  • 060755Z 20009KT 4800 +SHRA BR SCT004 BKN008 OVC015 24/22 A2966 RMK SLP043 P0074 T02440222
  • 060732Z 25007KT 200V290 0800 +SHRA FG SCT004 BKN008 OVC015 24/22 A2964 RMK SLP038

TAF TAF RJOI
Valid from the 06 at 05:00 until the 07 at 05:00 UTC


0605/0705 19015KT 6000 SHRA BR SCT004 BKN012 FEW030CB OVC030 641509 642404 510006 541609 QNH2960INS
TEMPO 0605/0611 20019G26KT 3200 +SHRA BR BKN004 BKN012 FEW030CB OVC030
FM061100 20012G20KT 4800 SHRA BR SCT004 BKN012 FEW030CB OVC030 641509 642404 510006 540909 541806 QNH2964INS
TEMPO 0611/0617 20012KT 1600 +SHRA BR BKN004 FEW012CB OVC012
FM061700 19015G24KT 4800 SHRA BR SCT004 BKN008 BKN012 SCT020CB OVC020 641509 642404 510005 540509 541409 QNH2962INS
TEMPO 0617/0623 18019G26KT 1600 +SHRA BR BKN004 FEW012CB OVC012
FM062300 18017G25KT 4800 SHRA BR SCT004 BKN008 BKN012 SCT020CB OVC020 641509 642404 510005 540509 541409 QNH2965INS
TEMPO 0623/0704 20016G24KT 6000 -SHRA BR SCT004 SCT008 BKN012 SCT020CB BKN020 OVC040 T23/0617Z T24/0705Z
RJJJ FIR / Asia



MET'MAP, your aeronautical weather chart ! - Copyright ORBIFLY December 2007 - Disclaimer

ORBIFLY MET'MAP TEAM :

Programming & Development : Alexandra Zaïnal
Concept & original design : Baudouin d'Aumeries
Assistance for programming : Marc-Olivier Méhu
Technical & hardware support : Manuel Goepfert

Contact : metmap@orbifly.com




SOURCES & CREDITS :

   NOAA       Earth
Advisory